sensor_id;sensor_type;location;lat;lon;timestamp;P1;durP1;ratioP1;P2;durP2;ratioP2
68821;SDS011;55834;50.870;4.606;2022-08-30T00:00:12;5.17;;;2.37;;
68821;SDS011;55834;50.870;4.606;2022-08-30T00:02:59;6.93;;;3.75;;
68821;SDS011;55834;50.870;4.606;2022-08-30T00:05:26;5.47;;;3.33;;
68821;SDS011;55834;50.870;4.606;2022-08-30T00:07:52;3.38;;;2.47;;
68821;SDS011;55834;50.870;4.606;2022-08-30T00:10:18;9.23;;;3.92;;
68821;SDS011;55834;50.870;4.606;2022-08-30T00:12:44;5.45;;;3.25;;
68821;SDS011;55834;50.870;4.606;2022-08-30T00:15:10;4.15;;;3.22;;
68821;SDS011;55834;50.870;4.606;2022-08-30T00:17:37;6.07;;;3.45;;
68821;SDS011;55834;50.870;4.606;2022-08-30T00:20:05;5.05;;;3.33;;
68821;SDS011;55834;50.870;4.606;2022-08-30T00:22:32;5.63;;;2.90;;
68821;SDS011;55834;50.870;4.606;2022-08-30T00:24:58;3.63;;;2.88;;
68821;SDS011;55834;50.870;4.606;2022-08-30T00:27:27;4.55;;;3.17;;
68821;SDS011;55834;50.870;4.606;2022-08-30T00:29:53;5.53;;;3.25;;
68821;SDS011;55834;50.870;4.606;2022-08-30T00:32:19;4.78;;;2.75;;
68821;SDS011;55834;50.870;4.606;2022-08-30T00:34:49;4.75;;;2.17;;
68821;SDS011;55834;50.870;4.606;2022-08-30T00:37:16;3.47;;;2.67;;
68821;SDS011;55834;50.870;4.606;2022-08-30T00:39:41;3.70;;;2.38;;
68821;SDS011;55834;50.870;4.606;2022-08-30T00:42:07;3.95;;;2.63;;
68821;SDS011;55834;50.870;4.606;2022-08-30T00:44:33;3.15;;;2.42;;
68821;SDS011;55834;50.870;4.606;2022-08-30T00:46:59;7.00;;;3.20;;
68821;SDS011;55834;50.870;4.606;2022-08-30T00:49:24;6.68;;;3.42;;
68821;SDS011;55834;50.870;4.606;2022-08-30T00:51:50;2.80;;;2.35;;
68821;SDS011;55834;50.870;4.606;2022-08-30T00:54:16;6.88;;;2.42;;
68821;SDS011;55834;50.870;4.606;2022-08-30T00:56:42;4.00;;;2.88;;
68821;SDS011;55834;50.870;4.606;2022-08-30T00:59:08;7.57;;;2.85;;
68821;SDS011;55834;50.870;4.606;2022-08-30T01:01:34;11.43;;;3.65;;
68821;SDS011;55834;50.870;4.606;2022-08-30T01:04:01;5.13;;;3.45;;
68821;SDS011;55834;50.870;4.606;2022-08-30T01:06:28;4.18;;;2.95;;
68821;SDS011;55834;50.870;4.606;2022-08-30T01:08:54;7.18;;;4.22;;
68821;SDS011;55834;50.870;4.606;2022-08-30T01:11:21;10.68;;;4.38;;
68821;SDS011;55834;50.870;4.606;2022-08-30T01:13:48;6.95;;;3.20;;
68821;SDS011;55834;50.870;4.606;2022-08-30T01:16:15;5.03;;;3.67;;
68821;SDS011;55834;50.870;4.606;2022-08-30T01:18:41;5.38;;;3.70;;
68821;SDS011;55834;50.870;4.606;2022-08-30T01:24:08;5.38;;;4.38;;
68821;SDS011;55834;50.870;4.606;2022-08-30T01:26:34;4.43;;;3.22;;
68821;SDS011;55834;50.870;4.606;2022-08-30T01:29:03;9.25;;;3.78;;
68821;SDS011;55834;50.870;4.606;2022-08-30T01:31:31;9.13;;;4.35;;
68821;SDS011;55834;50.870;4.606;2022-08-30T01:33:59;7.05;;;3.65;;
68821;SDS011;55834;50.870;4.606;2022-08-30T01:36:25;4.63;;;4.13;;
68821;SDS011;55834;50.870;4.606;2022-08-30T01:38:53;6.40;;;4.13;;
68821;SDS011;55834;50.870;4.606;2022-08-30T01:43:49;7.57;;;4.03;;
68821;SDS011;55834;50.870;4.606;2022-08-30T01:46:17;9.77;;;4.30;;
68821;SDS011;55834;50.870;4.606;2022-08-30T01:48:45;8.13;;;4.68;;
68821;SDS011;55834;50.870;4.606;2022-08-30T01:51:12;5.55;;;3.50;;
68821;SDS011;55834;50.870;4.606;2022-08-30T01:53:39;7.10;;;4.10;;
68821;SDS011;55834;50.870;4.606;2022-08-30T01:56:07;8.35;;;4.25;;
68821;SDS011;55834;50.870;4.606;2022-08-30T01:58:33;6.85;;;4.68;;
68821;SDS011;55834;50.870;4.606;2022-08-30T02:00:59;7.38;;;4.18;;
68821;SDS011;55834;50.870;4.606;2022-08-30T02:03:25;8.60;;;4.68;;
68821;SDS011;55834;50.870;4.606;2022-08-30T02:05:54;6.20;;;4.00;;
68821;SDS011;55834;50.870;4.606;2022-08-30T02:08:19;6.13;;;4.40;;
68821;SDS011;55834;50.870;4.606;2022-08-30T02:10:45;7.00;;;4.50;;
68821;SDS011;55834;50.870;4.606;2022-08-30T02:13:10;9.33;;;4.17;;
68821;SDS011;55834;50.870;4.606;2022-08-30T02:15:35;10.43;;;5.17;;
68821;SDS011;55834;50.870;4.606;2022-08-30T02:18:01;7.93;;;4.10;;
68821;SDS011;55834;50.870;4.606;2022-08-30T02:20:26;9.10;;;4.10;;
68821;SDS011;55834;50.870;4.606;2022-08-30T02:22:51;8.35;;;4.47;;
68821;SDS011;55834;50.870;4.606;2022-08-30T02:25:17;6.53;;;4.07;;
68821;SDS011;55834;50.870;4.606;2022-08-30T02:27:42;7.10;;;4.63;;
68821;SDS011;55834;50.870;4.606;2022-08-30T02:30:08;5.13;;;3.80;;
68821;SDS011;55834;50.870;4.606;2022-08-30T02:32:34;10.45;;;4.57;;
68821;SDS011;55834;50.870;4.606;2022-08-30T02:35:00;6.25;;;4.43;;
68821;SDS011;55834;50.870;4.606;2022-08-30T02:37:25;6.25;;;3.95;;
68821;SDS011;55834;50.870;4.606;2022-08-30T02:39:51;8.00;;;4.50;;
68821;SDS011;55834;50.870;4.606;2022-08-30T02:42:16;6.77;;;3.80;;
68821;SDS011;55834;50.870;4.606;2022-08-30T02:44:41;5.00;;;4.23;;
68821;SDS011;55834;50.870;4.606;2022-08-30T02:47:07;11.33;;;4.77;;
68821;SDS011;55834;50.870;4.606;2022-08-30T02:49:32;8.27;;;4.13;;
68821;SDS011;55834;50.870;4.606;2022-08-30T02:51:57;10.23;;;4.97;;
68821;SDS011;55834;50.870;4.606;2022-08-30T02:54:23;6.73;;;4.00;;
68821;SDS011;55834;50.870;4.606;2022-08-30T02:56:48;7.13;;;5.30;;
68821;SDS011;55834;50.870;4.606;2022-08-30T02:59:14;9.25;;;4.25;;
68821;SDS011;55834;50.870;4.606;2022-08-30T03:01:41;7.03;;;4.70;;
68821;SDS011;55834;50.870;4.606;2022-08-30T03:04:07;7.15;;;4.65;;
68821;SDS011;55834;50.870;4.606;2022-08-30T03:06:33;5.03;;;4.20;;
68821;SDS011;55834;50.870;4.606;2022-08-30T03:08:59;11.48;;;4.03;;
68821;SDS011;55834;50.870;4.606;2022-08-30T03:11:24;8.45;;;4.70;;
68821;SDS011;55834;50.870;4.606;2022-08-30T03:13:50;9.63;;;4.65;;
68821;SDS011;55834;50.870;4.606;2022-08-30T03:16:16;5.20;;;4.30;;
68821;SDS011;55834;50.870;4.606;2022-08-30T03:18:41;5.83;;;4.70;;
68821;SDS011;55834;50.870;4.606;2022-08-30T03:21:10;6.53;;;3.92;;
68821;SDS011;55834;50.870;4.606;2022-08-30T03:23:37;8.93;;;4.70;;
68821;SDS011;55834;50.870;4.606;2022-08-30T03:26:05;8.30;;;5.00;;
68821;SDS011;55834;50.870;4.606;2022-08-30T03:28:31;7.25;;;4.13;;
68821;SDS011;55834;50.870;4.606;2022-08-30T03:30:57;7.20;;;4.78;;
68821;SDS011;55834;50.870;4.606;2022-08-30T03:33:22;6.68;;;3.83;;
68821;SDS011;55834;50.870;4.606;2022-08-30T03:35:48;9.80;;;4.65;;
68821;SDS011;55834;50.870;4.606;2022-08-30T03:38:14;8.82;;;5.35;;
68821;SDS011;55834;50.870;4.606;2022-08-30T03:40:39;9.25;;;4.88;;
68821;SDS011;55834;50.870;4.606;2022-08-30T03:47:56;9.00;;;4.50;;
68821;SDS011;55834;50.870;4.606;2022-08-30T03:50:22;6.28;;;4.40;;
68821;SDS011;55834;50.870;4.606;2022-08-30T03:52:48;10.63;;;5.55;;
68821;SDS011;55834;50.870;4.606;2022-08-30T03:55:13;8.73;;;4.73;;
68821;SDS011;55834;50.870;4.606;2022-08-30T03:57:39;7.63;;;4.73;;
68821;SDS011;55834;50.870;4.606;2022-08-30T04:00:06;6.55;;;4.22;;
68821;SDS011;55834;50.870;4.606;2022-08-30T04:02:32;9.40;;;5.15;;
68821;SDS011;55834;50.870;4.606;2022-08-30T04:04:57;8.37;;;4.90;;
68821;SDS011;55834;50.870;4.606;2022-08-30T04:07:23;7.33;;;5.63;;
68821;SDS011;55834;50.870;4.606;2022-08-30T04:09:48;9.27;;;5.27;;
68821;SDS011;55834;50.870;4.606;2022-08-30T04:12:14;8.98;;;5.45;;
68821;SDS011;55834;50.870;4.606;2022-08-30T04:14:39;10.47;;;5.60;;
68821;SDS011;55834;50.870;4.606;2022-08-30T04:17:05;6.90;;;4.93;;
68821;SDS011;55834;50.870;4.606;2022-08-30T04:19:30;8.90;;;4.93;;
68821;SDS011;55834;50.870;4.606;2022-08-30T04:21:55;9.60;;;5.63;;
68821;SDS011;55834;50.870;4.606;2022-08-30T04:24:21;7.63;;;5.25;;
68821;SDS011;55834;50.870;4.606;2022-08-30T04:26:47;8.43;;;5.30;;
68821;SDS011;55834;50.870;4.606;2022-08-30T04:29:12;11.13;;;5.70;;
68821;SDS011;55834;50.870;4.606;2022-08-30T04:31:40;11.43;;;6.18;;
68821;SDS011;55834;50.870;4.606;2022-08-30T04:34:08;6.85;;;4.82;;
68821;SDS011;55834;50.870;4.606;2022-08-30T04:36:34;12.52;;;5.47;;
68821;SDS011;55834;50.870;4.606;2022-08-30T04:38:59;7.43;;;4.80;;
68821;SDS011;55834;50.870;4.606;2022-08-30T04:41:25;8.07;;;5.57;;
68821;SDS011;55834;50.870;4.606;2022-08-30T04:43:50;7.33;;;5.47;;
68821;SDS011;55834;50.870;4.606;2022-08-30T04:46:16;7.35;;;5.28;;
68821;SDS011;55834;50.870;4.606;2022-08-30T04:48:42;8.50;;;5.40;;
68821;SDS011;55834;50.870;4.606;2022-08-30T04:51:10;8.68;;;5.70;;
68821;SDS011;55834;50.870;4.606;2022-08-30T04:53:38;10.40;;;5.97;;
68821;SDS011;55834;50.870;4.606;2022-08-30T04:56:09;9.80;;;5.57;;
68821;SDS011;55834;50.870;4.606;2022-08-30T04:58:36;7.47;;;5.07;;
68821;SDS011;55834;50.870;4.606;2022-08-30T05:01:01;9.07;;;5.38;;
68821;SDS011;55834;50.870;4.606;2022-08-30T05:03:27;7.70;;;5.95;;
68821;SDS011;55834;50.870;4.606;2022-08-30T05:05:53;7.40;;;5.22;;
68821;SDS011;55834;50.870;4.606;2022-08-30T05:08:19;8.30;;;5.47;;
68821;SDS011;55834;50.870;4.606;2022-08-30T05:10:46;6.85;;;5.38;;
68821;SDS011;55834;50.870;4.606;2022-08-30T05:13:14;7.32;;;4.78;;
68821;SDS011;55834;50.870;4.606;2022-08-30T05:15:41;6.60;;;5.30;;
68821;SDS011;55834;50.870;4.606;2022-08-30T05:18:07;9.95;;;6.65;;
68821;SDS011;55834;50.870;4.606;2022-08-30T05:20:34;7.97;;;5.43;;
68821;SDS011;55834;50.870;4.606;2022-08-30T05:23:00;8.82;;;5.00;;
68821;SDS011;55834;50.870;4.606;2022-08-30T05:25:28;7.63;;;5.38;;
68821;SDS011;55834;50.870;4.606;2022-08-30T05:27:55;11.85;;;7.35;;
68821;SDS011;55834;50.870;4.606;2022-08-30T05:30:22;10.38;;;7.00;;
68821;SDS011;55834;50.870;4.606;2022-08-30T05:32:49;12.07;;;6.28;;
68821;SDS011;55834;50.870;4.606;2022-08-30T05:35:16;11.43;;;5.95;;
68821;SDS011;55834;50.870;4.606;2022-08-30T05:37:42;9.07;;;5.95;;
68821;SDS011;55834;50.870;4.606;2022-08-30T05:40:08;9.45;;;5.93;;
68821;SDS011;55834;50.870;4.606;2022-08-30T05:42:35;11.27;;;7.60;;
68821;SDS011;55834;50.870;4.606;2022-08-30T05:45:02;8.45;;;5.40;;
68821;SDS011;55834;50.870;4.606;2022-08-30T05:47:28;15.32;;;6.53;;
68821;SDS011;55834;50.870;4.606;2022-08-30T05:49:58;8.60;;;5.97;;
68821;SDS011;55834;50.870;4.606;2022-08-30T05:52:24;12.70;;;6.82;;
68821;SDS011;55834;50.870;4.606;2022-08-30T05:54:52;7.72;;;5.88;;
68821;SDS011;55834;50.870;4.606;2022-08-30T05:57:23;7.05;;;5.40;;
68821;SDS011;55834;50.870;4.606;2022-08-30T05:59:49;10.60;;;6.65;;
68821;SDS011;55834;50.870;4.606;2022-08-30T06:02:15;8.95;;;5.97;;
68821;SDS011;55834;50.870;4.606;2022-08-30T06:04:41;9.38;;;5.88;;
68821;SDS011;55834;50.870;4.606;2022-08-30T06:07:06;9.18;;;6.85;;
68821;SDS011;55834;50.870;4.606;2022-08-30T06:09:31;9.60;;;6.00;;
68821;SDS011;55834;50.870;4.606;2022-08-30T06:11:57;8.48;;;5.82;;
68821;SDS011;55834;50.870;4.606;2022-08-30T06:14:23;8.00;;;5.82;;
68821;SDS011;55834;50.870;4.606;2022-08-30T06:16:49;7.32;;;4.97;;
68821;SDS011;55834;50.870;4.606;2022-08-30T06:19:15;9.65;;;6.35;;
68821;SDS011;55834;50.870;4.606;2022-08-30T06:21:42;8.35;;;5.75;;
68821;SDS011;55834;50.870;4.606;2022-08-30T06:24:11;10.98;;;5.40;;
68821;SDS011;55834;50.870;4.606;2022-08-30T06:26:38;10.23;;;5.72;;
68821;SDS011;55834;50.870;4.606;2022-08-30T06:29:05;8.85;;;6.38;;
68821;SDS011;55834;50.870;4.606;2022-08-30T06:31:31;12.10;;;6.75;;
68821;SDS011;55834;50.870;4.606;2022-08-30T06:33:57;7.72;;;6.00;;
68821;SDS011;55834;50.870;4.606;2022-08-30T06:36:23;11.23;;;7.03;;
68821;SDS011;55834;50.870;4.606;2022-08-30T06:38:50;12.68;;;7.78;;
68821;SDS011;55834;50.870;4.606;2022-08-30T06:41:18;10.20;;;7.05;;
68821;SDS011;55834;50.870;4.606;2022-08-30T06:43:46;10.45;;;7.65;;
68821;SDS011;55834;50.870;4.606;2022-08-30T06:46:12;8.63;;;5.80;;
68821;SDS011;55834;50.870;4.606;2022-08-30T06:48:40;7.45;;;5.93;;
68821;SDS011;55834;50.870;4.606;2022-08-30T06:51:05;8.13;;;6.85;;
68821;SDS011;55834;50.870;4.606;2022-08-30T06:53:32;10.75;;;6.38;;
68821;SDS011;55834;50.870;4.606;2022-08-30T06:55:59;10.70;;;6.75;;
68821;SDS011;55834;50.870;4.606;2022-08-30T06:58:26;12.55;;;6.43;;
68821;SDS011;55834;50.870;4.606;2022-08-30T07:00:53;10.48;;;5.70;;
68821;SDS011;55834;50.870;4.606;2022-08-30T07:03:19;10.00;;;6.10;;
68821;SDS011;55834;50.870;4.606;2022-08-30T07:05:46;9.33;;;6.40;;
68821;SDS011;55834;50.870;4.606;2022-08-30T07:08:12;15.15;;;7.07;;
68821;SDS011;55834;50.870;4.606;2022-08-30T07:10:38;9.57;;;7.07;;
68821;SDS011;55834;50.870;4.606;2022-08-30T07:15:30;8.82;;;6.88;;
68821;SDS011;55834;50.870;4.606;2022-08-30T07:17:55;7.35;;;6.03;;
68821;SDS011;55834;50.870;4.606;2022-08-30T07:20:39;7.72;;;5.80;;
68821;SDS011;55834;50.870;4.606;2022-08-30T07:23:04;6.73;;;5.53;;
68821;SDS011;55834;50.870;4.606;2022-08-30T07:25:29;8.33;;;5.40;;
68821;SDS011;55834;50.870;4.606;2022-08-30T07:27:55;10.83;;;6.67;;
68821;SDS011;55834;50.870;4.606;2022-08-30T07:30:21;8.55;;;5.72;;
68821;SDS011;55834;50.870;4.606;2022-08-30T07:32:46;8.40;;;6.38;;
68821;SDS011;55834;50.870;4.606;2022-08-30T07:35:12;8.00;;;6.35;;
68821;SDS011;55834;50.870;4.606;2022-08-30T07:37:38;9.70;;;5.40;;
68821;SDS011;55834;50.870;4.606;2022-08-30T07:40:04;7.93;;;5.83;;
68821;SDS011;55834;50.870;4.606;2022-08-30T07:42:30;7.63;;;6.45;;
68821;SDS011;55834;50.870;4.606;2022-08-30T07:44:55;7.72;;;5.50;;
68821;SDS011;55834;50.870;4.606;2022-08-30T07:47:21;9.63;;;5.03;;
68821;SDS011;55834;50.870;4.606;2022-08-30T07:49:46;8.50;;;5.77;;
68821;SDS011;55834;50.870;4.606;2022-08-30T07:52:12;6.88;;;5.43;;
68821;SDS011;55834;50.870;4.606;2022-08-30T07:54:37;9.90;;;6.80;;
68821;SDS011;55834;50.870;4.606;2022-08-30T07:57:02;8.30;;;5.50;;
68821;SDS011;55834;50.870;4.606;2022-08-30T07:59:28;6.63;;;4.10;;
68821;SDS011;55834;50.870;4.606;2022-08-30T08:01:53;6.75;;;4.50;;
68821;SDS011;55834;50.870;4.606;2022-08-30T08:04:19;6.60;;;5.10;;
68821;SDS011;55834;50.870;4.606;2022-08-30T08:06:45;8.90;;;5.40;;
68821;SDS011;55834;50.870;4.606;2022-08-30T08:09:10;9.07;;;5.28;;
68821;SDS011;55834;50.870;4.606;2022-08-30T08:11:35;8.47;;;4.93;;
68821;SDS011;55834;50.870;4.606;2022-08-30T08:14:02;8.27;;;5.03;;
68821;SDS011;55834;50.870;4.606;2022-08-30T08:16:29;13.63;;;6.00;;
68821;SDS011;55834;50.870;4.606;2022-08-30T08:18:56;8.25;;;5.05;;
68821;SDS011;55834;50.870;4.606;2022-08-30T08:21:22;5.40;;;4.18;;
68821;SDS011;55834;50.870;4.606;2022-08-30T08:23:49;8.52;;;5.05;;
68821;SDS011;55834;50.870;4.606;2022-08-30T08:26:15;8.93;;;5.35;;
68821;SDS011;55834;50.870;4.606;2022-08-30T08:28:40;8.10;;;4.78;;
68821;SDS011;55834;50.870;4.606;2022-08-30T08:31:13;9.23;;;4.68;;
68821;SDS011;55834;50.870;4.606;2022-08-30T08:36:04;7.00;;;4.17;;
68821;SDS011;55834;50.870;4.606;2022-08-30T08:38:30;6.68;;;3.55;;
68821;SDS011;55834;50.870;4.606;2022-08-30T08:43:32;6.65;;;3.42;;
68821;SDS011;55834;50.870;4.606;2022-08-30T08:48:38;5.22;;;4.00;;
68821;SDS011;55834;50.870;4.606;2022-08-30T08:51:08;5.03;;;4.35;;
68821;SDS011;55834;50.870;4.606;2022-08-30T08:53:58;8.23;;;4.30;;
68821;SDS011;55834;50.870;4.606;2022-08-30T08:56:29;5.22;;;3.55;;
68821;SDS011;55834;50.870;4.606;2022-08-30T08:58:55;7.97;;;4.70;;
68821;SDS011;55834;50.870;4.606;2022-08-30T09:01:23;6.30;;;4.93;;
68821;SDS011;55834;50.870;4.606;2022-08-30T09:03:52;8.65;;;3.70;;
68821;SDS011;55834;50.870;4.606;2022-08-30T09:06:38;4.43;;;4.03;;
68821;SDS011;55834;50.870;4.606;2022-08-30T09:09:13;4.72;;;3.78;;
68821;SDS011;55834;50.870;4.606;2022-08-30T09:11:40;7.03;;;5.03;;
68821;SDS011;55834;50.870;4.606;2022-08-30T09:16:56;8.10;;;4.55;;
68821;SDS011;55834;50.870;4.606;2022-08-30T09:22:14;4.68;;;3.70;;
68821;SDS011;55834;50.870;4.606;2022-08-30T09:30:04;4.75;;;4.10;;
68821;SDS011;55834;50.870;4.606;2022-08-30T09:32:40;6.78;;;3.83;;
68821;SDS011;55834;50.870;4.606;2022-08-30T09:35:09;7.22;;;4.10;;
68821;SDS011;55834;50.870;4.606;2022-08-30T09:37:45;3.45;;;3.03;;
68821;SDS011;55834;50.870;4.606;2022-08-30T09:40:23;6.45;;;3.03;;
68821;SDS011;55834;50.870;4.606;2022-08-30T09:43:25;9.32;;;4.50;;
68821;SDS011;55834;50.870;4.606;2022-08-30T09:45:46;6.45;;;4.20;;
68821;SDS011;55834;50.870;4.606;2022-08-30T09:48:34;6.30;;;4.22;;
68821;SDS011;55834;50.870;4.606;2022-08-30T09:53:43;4.05;;;3.17;;
68821;SDS011;55834;50.870;4.606;2022-08-30T10:05:11;4.43;;;3.00;;
68821;SDS011;55834;50.870;4.606;2022-08-30T10:10:50;6.85;;;4.13;;
68821;SDS011;55834;50.870;4.606;2022-08-30T10:13:31;8.13;;;3.42;;
68821;SDS011;55834;50.870;4.606;2022-08-30T10:21:42;7.50;;;2.53;;
68821;SDS011;55834;50.870;4.606;2022-08-30T10:24:15;7.60;;;3.45;;
68821;SDS011;55834;50.870;4.606;2022-08-30T10:26:56;3.72;;;2.75;;
68821;SDS011;55834;50.870;4.606;2022-08-30T10:29:35;5.30;;;2.60;;
68821;SDS011;55834;50.870;4.606;2022-08-30T10:32:09;4.47;;;2.67;;
68821;SDS011;55834;50.870;4.606;2022-08-30T10:37:30;8.43;;;3.28;;
68821;SDS011;55834;50.870;4.606;2022-08-30T10:40:04;3.67;;;2.83;;
68821;SDS011;55834;50.870;4.606;2022-08-30T10:42:54;5.68;;;2.60;;
68821;SDS011;55834;50.870;4.606;2022-08-30T10:45:22;3.97;;;2.28;;
68821;SDS011;55834;50.870;4.606;2022-08-30T10:50:27;2.05;;;1.85;;
68821;SDS011;55834;50.870;4.606;2022-08-30T10:52:57;5.38;;;2.63;;
68821;SDS011;55834;50.870;4.606;2022-08-30T10:55:29;6.45;;;2.67;;
68821;SDS011;55834;50.870;4.606;2022-08-30T10:57:59;2.42;;;2.20;;
68821;SDS011;55834;50.870;4.606;2022-08-30T11:12:02;4.40;;;2.55;;
68821;SDS011;55834;50.870;4.606;2022-08-30T11:14:45;9.55;;;2.42;;
68821;SDS011;55834;50.870;4.606;2022-08-30T11:17:23;4.60;;;2.17;;
68821;SDS011;55834;50.870;4.606;2022-08-30T11:20:03;5.93;;;3.28;;
68821;SDS011;55834;50.870;4.606;2022-08-30T11:22:33;4.82;;;2.33;;
68821;SDS011;55834;50.870;4.606;2022-08-30T11:33:49;4.53;;;2.40;;
68821;SDS011;55834;50.870;4.606;2022-08-30T11:35:47;7.28;;;2.92;;
68821;SDS011;55834;50.870;4.606;2022-08-30T11:48:42;5.57;;;2.38;;
68821;SDS011;55834;50.870;4.606;2022-08-30T11:51:12;5.15;;;2.15;;
68821;SDS011;55834;50.870;4.606;2022-08-30T11:53:54;4.35;;;2.53;;
68821;SDS011;55834;50.870;4.606;2022-08-30T11:59:24;5.78;;;2.58;;
68821;SDS011;55834;50.870;4.606;2022-08-30T12:08:02;2.15;;;1.88;;
68821;SDS011;55834;50.870;4.606;2022-08-30T12:10:39;5.20;;;1.75;;
68821;SDS011;55834;50.870;4.606;2022-08-30T12:18:50;6.28;;;2.25;;
68821;SDS011;55834;50.870;4.606;2022-08-30T12:21:25;4.80;;;2.08;;
68821;SDS011;55834;50.870;4.606;2022-08-30T12:26:44;5.30;;;2.20;;
68821;SDS011;55834;50.870;4.606;2022-08-30T12:29:24;7.05;;;2.88;;
68821;SDS011;55834;50.870;4.606;2022-08-30T12:32:02;8.15;;;2.63;;
68821;SDS011;55834;50.870;4.606;2022-08-30T12:37:29;4.28;;;2.20;;
68821;SDS011;55834;50.870;4.606;2022-08-30T12:39:59;4.65;;;2.58;;
68821;SDS011;55834;50.870;4.606;2022-08-30T12:42:50;5.10;;;2.72;;
68821;SDS011;55834;50.870;4.606;2022-08-30T12:45:18;3.53;;;2.50;;
68821;SDS011;55834;50.870;4.606;2022-08-30T12:47:49;3.38;;;2.53;;
68821;SDS011;55834;50.870;4.606;2022-08-30T12:50:30;7.03;;;2.30;;
68821;SDS011;55834;50.870;4.606;2022-08-30T12:53:09;9.90;;;3.20;;
68821;SDS011;55834;50.870;4.606;2022-08-30T12:58:45;3.63;;;2.70;;
68821;SDS011;55834;50.870;4.606;2022-08-30T13:01:17;4.40;;;2.17;;
68821;SDS011;55834;50.870;4.606;2022-08-30T13:09:20;3.28;;;2.17;;
68821;SDS011;55834;50.870;4.606;2022-08-30T13:11:50;4.32;;;2.25;;
68821;SDS011;55834;50.870;4.606;2022-08-30T13:14:18;3.53;;;2.10;;
68821;SDS011;55834;50.870;4.606;2022-08-30T13:17:04;5.97;;;2.85;;
68821;SDS011;55834;50.870;4.606;2022-08-30T13:19:31;4.50;;;2.40;;
68821;SDS011;55834;50.870;4.606;2022-08-30T13:21:58;3.80;;;2.20;;
68821;SDS011;55834;50.870;4.606;2022-08-30T13:24:25;4.68;;;2.72;;
68821;SDS011;55834;50.870;4.606;2022-08-30T13:26:51;3.33;;;2.88;;
68821;SDS011;55834;50.870;4.606;2022-08-30T13:29:20;7.18;;;3.15;;
68821;SDS011;55834;50.870;4.606;2022-08-30T13:31:49;6.65;;;2.38;;
68821;SDS011;55834;50.870;4.606;2022-08-30T13:34:14;3.40;;;1.80;;
68821;SDS011;55834;50.870;4.606;2022-08-30T13:36:45;2.85;;;1.50;;
68821;SDS011;55834;50.870;4.606;2022-08-30T13:39:13;3.85;;;1.88;;
68821;SDS011;55834;50.870;4.606;2022-08-30T13:41:38;3.23;;;1.83;;
68821;SDS011;55834;50.870;4.606;2022-08-30T13:44:04;2.30;;;2.10;;
68821;SDS011;55834;50.870;4.606;2022-08-30T13:46:30;3.88;;;1.70;;
68821;SDS011;55834;50.870;4.606;2022-08-30T13:49:01;3.72;;;1.90;;
68821;SDS011;55834;50.870;4.606;2022-08-30T13:51:29;4.20;;;1.88;;
68821;SDS011;55834;50.870;4.606;2022-08-30T13:53:55;4.00;;;1.77;;
68821;SDS011;55834;50.870;4.606;2022-08-30T13:56:22;4.53;;;2.22;;
68821;SDS011;55834;50.870;4.606;2022-08-30T13:58:48;4.43;;;2.00;;
68821;SDS011;55834;50.870;4.606;2022-08-30T14:01:14;4.18;;;2.00;;
68821;SDS011;55834;50.870;4.606;2022-08-30T14:03:39;6.73;;;2.07;;
68821;SDS011;55834;50.870;4.606;2022-08-30T14:06:04;5.33;;;1.93;;
68821;SDS011;55834;50.870;4.606;2022-08-30T14:08:30;4.22;;;2.13;;
68821;SDS011;55834;50.870;4.606;2022-08-30T14:10:56;3.78;;;2.17;;
68821;SDS011;55834;50.870;4.606;2022-08-30T14:13:23;9.30;;;2.30;;
68821;SDS011;55834;50.870;4.606;2022-08-30T14:15:50;5.13;;;2.17;;
68821;SDS011;55834;50.870;4.606;2022-08-30T14:18:16;2.88;;;1.92;;
68821;SDS011;55834;50.870;4.606;2022-08-30T14:20:41;4.53;;;2.00;;
68821;SDS011;55834;50.870;4.606;2022-08-30T14:23:07;5.93;;;2.28;;
68821;SDS011;55834;50.870;4.606;2022-08-30T14:25:32;2.45;;;1.92;;
68821;SDS011;55834;50.870;4.606;2022-08-30T14:27:58;2.47;;;1.50;;
68821;SDS011;55834;50.870;4.606;2022-08-30T14:30:24;2.25;;;1.52;;
68821;SDS011;55834;50.870;4.606;2022-08-30T14:32:50;3.97;;;1.88;;
68821;SDS011;55834;50.870;4.606;2022-08-30T14:35:15;1.40;;;1.30;;
68821;SDS011;55834;50.870;4.606;2022-08-30T14:37:44;3.38;;;1.88;;
68821;SDS011;55834;50.870;4.606;2022-08-30T14:40:10;3.22;;;1.55;;
68821;SDS011;55834;50.870;4.606;2022-08-30T14:42:35;3.65;;;1.90;;
68821;SDS011;55834;50.870;4.606;2022-08-30T14:45:00;5.87;;;2.27;;
68821;SDS011;55834;50.870;4.606;2022-08-30T14:47:26;3.08;;;2.13;;
68821;SDS011;55834;50.870;4.606;2022-08-30T14:49:51;3.80;;;1.70;;
68821;SDS011;55834;50.870;4.606;2022-08-30T14:52:17;5.30;;;1.70;;
68821;SDS011;55834;50.870;4.606;2022-08-30T14:54:43;3.40;;;1.60;;
68821;SDS011;55834;50.870;4.606;2022-08-30T14:57:08;4.87;;;1.90;;
68821;SDS011;55834;50.870;4.606;2022-08-30T14:59:34;3.60;;;1.60;;
68821;SDS011;55834;50.870;4.606;2022-08-30T15:01:59;4.67;;;1.70;;
68821;SDS011;55834;50.870;4.606;2022-08-30T15:04:24;3.03;;;1.55;;
68821;SDS011;55834;50.870;4.606;2022-08-30T15:06:50;3.53;;;2.10;;
68821;SDS011;55834;50.870;4.606;2022-08-30T15:09:18;1.52;;;1.30;;
68821;SDS011;55834;50.870;4.606;2022-08-30T15:11:46;5.18;;;1.67;;
68821;SDS011;55834;50.870;4.606;2022-08-30T15:14:12;3.25;;;1.60;;
68821;SDS011;55834;50.870;4.606;2022-08-30T15:16:38;4.18;;;1.70;;
68821;SDS011;55834;50.870;4.606;2022-08-30T15:19:04;3.70;;;1.63;;
68821;SDS011;55834;50.870;4.606;2022-08-30T15:21:35;4.07;;;1.70;;
68821;SDS011;55834;50.870;4.606;2022-08-30T15:24:04;2.20;;;1.58;;
68821;SDS011;55834;50.870;4.606;2022-08-30T15:26:36;2.45;;;1.90;;
68821;SDS011;55834;50.870;4.606;2022-08-30T15:29:05;4.25;;;2.00;;
68821;SDS011;55834;50.870;4.606;2022-08-30T15:33:58;2.40;;;1.48;;
68821;SDS011;55834;50.870;4.606;2022-08-30T15:36:24;2.40;;;1.60;;
68821;SDS011;55834;50.870;4.606;2022-08-30T15:38:51;1.67;;;1.50;;
68821;SDS011;55834;50.870;4.606;2022-08-30T15:41:19;3.53;;;1.60;;
68821;SDS011;55834;50.870;4.606;2022-08-30T15:43:45;2.88;;;1.52;;
68821;SDS011;55834;50.870;4.606;2022-08-30T15:46:21;2.33;;;1.42;;
68821;SDS011;55834;50.870;4.606;2022-08-30T15:48:52;3.22;;;1.42;;
68821;SDS011;55834;50.870;4.606;2022-08-30T15:51:19;2.35;;;1.20;;
68821;SDS011;55834;50.870;4.606;2022-08-30T15:53:46;2.58;;;1.88;;
68821;SDS011;55834;50.870;4.606;2022-08-30T15:56:12;4.07;;;1.58;;
68821;SDS011;55834;50.870;4.606;2022-08-30T15:58:39;4.38;;;1.70;;
68821;SDS011;55834;50.870;4.606;2022-08-30T16:01:05;4.15;;;1.98;;
68821;SDS011;55834;50.870;4.606;2022-08-30T16:03:32;2.83;;;1.70;;
68821;SDS011;55834;50.870;4.606;2022-08-30T16:05:58;1.65;;;1.45;;
68821;SDS011;55834;50.870;4.606;2022-08-30T16:08:24;2.00;;;1.70;;
68821;SDS011;55834;50.870;4.606;2022-08-30T16:10:49;1.77;;;1.60;;
68821;SDS011;55834;50.870;4.606;2022-08-30T16:13:15;2.92;;;1.50;;
68821;SDS011;55834;50.870;4.606;2022-08-30T16:15:41;1.98;;;1.70;;
68821;SDS011;55834;50.870;4.606;2022-08-30T16:18:10;5.35;;;1.75;;
68821;SDS011;55834;50.870;4.606;2022-08-30T16:20:38;2.40;;;1.30;;
68821;SDS011;55834;50.870;4.606;2022-08-30T16:23:07;3.40;;;2.00;;
68821;SDS011;55834;50.870;4.606;2022-08-30T16:25:34;5.80;;;1.90;;
68821;SDS011;55834;50.870;4.606;2022-08-30T16:27:59;5.70;;;1.63;;
68821;SDS011;55834;50.870;4.606;2022-08-30T16:30:25;7.72;;;2.47;;
68821;SDS011;55834;50.870;4.606;2022-08-30T16:32:50;5.07;;;1.50;;
68821;SDS011;55834;50.870;4.606;2022-08-30T16:35:16;1.87;;;1.47;;
68821;SDS011;55834;50.870;4.606;2022-08-30T16:37:41;2.80;;;1.33;;
68821;SDS011;55834;50.870;4.606;2022-08-30T16:40:07;2.97;;;1.70;;
68821;SDS011;55834;50.870;4.606;2022-08-30T16:42:33;2.67;;;1.50;;
68821;SDS011;55834;50.870;4.606;2022-08-30T16:44:58;3.55;;;1.45;;
68821;SDS011;55834;50.870;4.606;2022-08-30T16:47:24;3.67;;;1.80;;